Terminal Aerodrome Forecast
Issued by NWS Bismarck, ND

Home | Current Version | Previous Version | Text Only | Print | Product List | Glossary Off
Versions: 1 2 3 4 5 6 7 8 9 10 11 12 13 14 15 16 17 18 19 20 21 22 23

000
FTUS43 KBIS 221139
TAFBIS
TAF
KBIS 221139Z 2212/2312 36006KT 5SM -RA BR OVC010
     FM221300 34007KT 2SM -SN BR FEW003 SCT005 OVC008
     FM221800 01013KT P6SM VCSH OVC008
     FM230000 01006KT P6SM OVC015=

USA.gov is the U.S. government's official web portal to all federal, state and local government web resources and services.